Time;durP1;ratioP1;P1;durP2;ratioP2;P2;SDS_P1;SDS_P2;PMS_P1;PMS_P2;Temp;Humidity;BMP_temperature;BMP_pressure;BME280_temperature;BME280_humidity;BME280_pressure;Samples;Min_cycle;Max_cycle;Signal;HPM_P1;HPM_P2
2022/09/21 00:00:31;;;;;;;10.05;5.00;;;;;;;8.78;100.00;102561.97;5043593;28;20036;-69
2022/09/21 00:02:57;;;;;;;11.25;5.28;;;;;;;8.60;100.00;102565.16;5058030;28;20071;-69
2022/09/21 00:05:24;;;;;;;9.68;4.82;;;;;;;8.44;100.00;102557.59;5063985;28;20048;-69
2022/09/21 00:07:50;;;;;;;8.50;4.50;;;;;;;8.42;100.00;102567.41;5063790;28;20051;-67
2022/09/21 00:10:19;;;;;;;8.85;5.63;;;;;;;8.36;100.00;102561.34;5042475;28;20191;-69
2022/09/21 00:12:47;;;;;;;10.02;4.70;;;;;;;8.20;100.00;102560.88;5059779;28;20036;-67
2022/09/21 00:15:14;;;;;;;10.70;4.78;;;;;;;8.23;100.00;102564.34;5043079;28;20496;-69
2022/09/21 00:17:40;;;;;;;10.60;4.30;;;;;;;8.27;100.00;102562.44;5062574;28;20048;-69
2022/09/21 00:20:06;;;;;;;10.43;5.43;;;;;;;7.96;100.00;102565.88;5026400;28;20124;-68
2022/09/21 00:22:32;;;;;;;8.68;4.30;;;;;;;8.00;100.00;102559.59;5033817;28;20033;-69
2022/09/21 00:25:00;;;;;;;8.65;5.05;;;;;;;8.04;100.00;102558.63;5055662;28;20045;-68
2022/09/21 00:27:28;;;;;;;9.98;5.22;;;;;;;7.94;100.00;102556.22;5027431;28;20040;-68
2022/09/21 00:30:02;;;;;;;24.48;6.25;;;;;;;7.78;100.00;102558.34;5056995;28;20099;-69
2022/09/21 00:32:32;;;;;;;8.20;5.43;;;;;;;7.84;100.00;102562.69;5041410;28;20075;-69
2022/09/21 00:34:59;;;;;;;11.38;4.95;;;;;;;7.88;100.00;102567.88;5040928;28;20044;-69
2022/09/21 00:37:26;;;;;;;9.15;4.47;;;;;;;7.82;100.00;102569.78;5061036;28;20036;-69
2022/09/21 00:39:52;;;;;;;10.27;5.38;;;;;;;7.81;100.00;102568.91;5060150;28;20093;-68
2022/09/21 00:42:29;;;;;;;10.35;5.22;;;;;;;7.64;100.00;102568.47;5062657;28;20051;-68
2022/09/21 00:44:56;;;;;;;9.65;5.18;;;;;;;7.63;100.00;102569.34;5037762;28;20044;-67
2022/09/21 00:47:27;;;;;;;10.23;5.35;;;;;;;7.52;100.00;102575.78;5060253;28;20040;-70
2022/09/21 00:49:56;;;;;;;11.30;5.35;;;;;;;7.55;100.00;102568.66;5061364;28;20102;-70
2022/09/21 00:52:26;;;;;;;11.63;5.57;;;;;;;7.60;100.00;102566.78;5023812;28;20066;-69
2022/09/21 00:54:59;;;;;;;12.00;5.95;;;;;;;7.55;100.00;102579.28;5033190;28;20056;-69
2022/09/21 00:57:29;;;;;;;7.68;3.38;;;;;;;7.30;100.00;102579.81;5062827;28;20054;-70
2022/09/21 00:59:57;;;;;;;4.82;3.00;;;;;;;7.38;100.00;102582.28;5061281;28;20527;-69
2022/09/21 01:02:23;;;;;;;4.78;3.28;;;;;;;7.21;100.00;102580.03;5052146;28;20074;-69
2022/09/21 01:04:52;;;;;;;9.68;5.22;;;;;;;7.33;100.00;102576.22;5061394;28;20208;-70
2022/09/21 01:07:22;;;;;;;8.32;4.82;;;;;;;7.22;100.00;102577.31;5036115;28;20045;-69
2022/09/21 01:09:52;;;;;;;7.38;4.45;;;;;;;7.27;100.00;102580.75;5058972;28;20049;-67
2022/09/21 01:12:29;;;;;;;11.77;4.45;;;;;;;7.07;100.00;102588.25;5058652;28;20063;-69
2022/09/21 01:15:47;;;;;;;6.68;4.03;;;;;;;7.01;100.00;102585.75;5043440;28;20087;-69
2022/09/21 01:18:15;;;;;;;6.40;3.30;;;;;;;7.20;100.00;102579.16;4958978;28;20050;-70
2022/09/21 01:21:09;;;;;;;5.78;3.88;;;;;;;7.14;100.00;102587.25;4957601;28;20046;-69
2022/09/21 01:23:50;;;;;;;7.45;4.22;;;;;;;7.22;100.00;102582.63;4936760;28;20043;-68
2022/09/21 01:26:42;;;;;;;8.13;4.65;;;;;;;6.99;100.00;102580.47;4952481;28;20039;-69
2022/09/21 01:29:38;;;;;;;9.52;5.22;;;;;;;7.05;100.00;102584.78;4947900;28;20062;-69
2022/09/21 01:32:12;;;;;;;13.90;5.07;;;;;;;7.19;100.00;102582.72;4950460;28;20038;-68
2022/09/21 01:34:44;;;;;;;9.55;4.85;;;;;;;7.09;100.00;102588.25;4952296;28;20210;-70
2022/09/21 01:37:15;;;;;;;13.75;5.53;;;;;;;7.10;100.00;102588.22;4958556;28;20097;-69
2022/09/21 01:39:44;;;;;;;11.00;5.53;;;;;;;7.14;100.00;102583.72;4933517;28;20047;-68
2022/09/21 01:42:16;;;;;;;11.73;5.80;;;;;;;7.24;100.00;102580.84;4957719;28;20133;-68
2022/09/21 01:44:44;;;;;;;8.65;4.63;;;;;;;7.12;100.00;102583.72;4957882;28;20050;-68
2022/09/21 01:47:14;;;;;;;10.88;4.95;;;;;;;6.97;100.00;102582.25;4961711;28;20065;-68
2022/09/21 01:49:51;;;;;;;7.45;4.15;;;;;;;6.63;100.00;102587.38;4961559;28;20594;-68
2022/09/21 01:52:25;;;;;;;10.18;5.35;;;;;;;6.66;100.00;102583.78;4962462;28;20539;-69
2022/09/21 01:55:01;;;;;;;12.90;5.35;;;;;;;6.51;100.00;102581.44;4995020;28;20040;-72
2022/09/21 01:57:42;;;;;;;7.70;4.25;;;;;;;6.64;100.00;102582.94;5058234;28;20059;-69
2022/09/21 02:00:11;;;;;;;7.13;3.88;;;;;;;6.71;100.00;102588.09;5061785;28;20032;-70
2022/09/21 02:02:49;;;;;;;8.85;4.82;;;;;;;6.79;100.00;102577.34;5058677;28;20060;-68
2022/09/21 02:05:24;;;;;;;12.52;5.25;;;;;;;6.77;100.00;102578.28;5044621;28;20032;-68
2022/09/21 02:07:51;;;;;;;10.52;5.05;;;;;;;6.75;100.00;102575.66;5060838;28;20123;-69
2022/09/21 02:10:34;;;;;;;8.95;4.20;;;;;;;6.72;100.00;102578.34;5063563;28;20043;-69
2022/09/21 02:13:05;;;;;;;6.05;4.32;;;;;;;6.61;100.00;102580.34;5063953;28;20028;-69
2022/09/21 02:15:57;;;;;;;4.15;3.13;;;;;;;6.43;100.00;102582.44;5063989;28;20119;-69
2022/09/21 02:18:56;;;;;;;2.92;2.35;;;;;;;6.29;100.00;102584.47;5057896;28;20029;-69
2022/09/21 02:21:24;;;;;;;6.10;3.70;;;;;;;6.43;100.00;102579.81;5053840;28;20040;-68
2022/09/21 02:24:13;;;;;;;5.68;3.20;;;;;;;6.42;100.00;102585.09;5039557;28;20106;-69
2022/09/21 02:26:48;;;;;;;7.53;3.55;;;;;;;6.25;100.00;102581.91;5062854;28;20048;-68
2022/09/21 02:29:24;;;;;;;6.68;3.03;;;;;;;6.33;100.00;102578.22;5064088;28;20090;-69
2022/09/21 02:32:32;;;;;;;4.47;3.20;;;;;;;6.25;100.00;102582.75;5059631;28;20052;-68
2022/09/21 02:35:07;;;;;;;12.23;3.53;;;;;;;6.01;100.00;102581.41;4953895;28;20637;-69
2022/09/21 02:37:35;;;;;;;3.20;2.53;;;;;;;6.01;100.00;102577.88;4959250;28;20063;-68
2022/09/21 02:40:15;;;;;;;3.97;2.35;;;;;;;5.98;100.00;102576.16;4945715;28;20055;-69
2022/09/21 02:42:45;;;;;;;3.72;2.85;;;;;;;6.02;100.00;102576.97;4951907;28;20116;-68
2022/09/21 02:45:21;;;;;;;10.10;3.55;;;;;;;5.99;100.00;102574.41;4965052;28;20153;-68
2022/09/21 02:47:55;;;;;;;8.10;3.35;;;;;;;6.09;100.00;102574.22;4964239;28;20054;-68
2022/09/21 02:50:28;;;;;;;8.15;3.47;;;;;;;6.10;100.00;102573.31;4960319;28;20500;-70
2022/09/21 02:52:59;;;;;;;4.90;3.13;;;;;;;5.94;100.00;102577.97;4960712;28;20455;-69
2022/09/21 02:55:26;;;;;;;8.60;3.30;;;;;;;6.05;100.00;102579.59;4964194;28;20050;-69
2022/09/21 02:57:54;;;;;;;6.90;4.00;;;;;;;6.12;100.00;102576.78;4962671;28;20043;-69
2022/09/21 03:00:20;;;;;;;5.05;3.22;;;;;;;6.06;100.00;102576.91;4961787;28;20039;-69
2022/09/21 03:02:45;;;;;;;5.72;3.40;;;;;;;6.01;100.00;102578.75;4953762;28;20063;-69
2022/09/21 03:05:12;;;;;;;3.97;2.63;;;;;;;5.72;100.00;102580.06;4963547;28;20057;-69
2022/09/21 03:07:38;;;;;;;3.28;2.35;;;;;;;5.78;100.00;102576.44;4954217;28;20075;-70
2022/09/21 03:10:07;;;;;;;9.45;3.55;;;;;;;5.82;100.00;102578.13;4943040;28;20507;-68
2022/09/21 03:12:32;;;;;;;4.35;2.72;;;;;;;5.71;100.00;102573.00;5044757;28;20063;-69
2022/09/21 03:14:58;;;;;;;4.97;2.90;;;;;;;5.72;100.00;102568.59;5063075;28;20129;-70
2022/09/21 03:17:25;;;;;;;4.50;2.95;;;;;;;5.68;100.00;102566.91;5028116;28;20870;-69
2022/09/21 03:19:53;;;;;;;10.82;2.67;;;;;;;5.64;100.00;102565.19;5060618;28;20037;-69
2022/09/21 03:22:20;;;;;;;5.82;2.72;;;;;;;5.64;100.00;102579.31;5060396;28;20113;-69
2022/09/21 03:24:45;;;;;;;4.13;2.97;;;;;;;5.68;100.00;102580.13;5041455;28;20052;-69
2022/09/21 03:27:13;;;;;;;4.40;2.63;;;;;;;5.80;100.00;102579.06;5045113;28;20032;-69
2022/09/21 03:29:39;;;;;;;4.30;3.10;;;;;;;5.92;100.00;102584.19;5059221;28;20067;-69
2022/09/21 03:32:06;;;;;;;4.78;3.00;;;;;;;5.92;100.00;102585.09;5062363;28;20037;-69
2022/09/21 03:34:33;;;;;;;4.93;2.90;;;;;;;5.86;100.00;102585.13;5039246;28;20075;-68
2022/09/21 03:37:00;;;;;;;7.82;2.92;;;;;;;5.77;100.00;102581.75;5063363;28;20033;-69
2022/09/21 03:39:26;;;;;;;4.00;1.63;;;;;;;5.69;100.00;102582.75;5058062;28;20051;-68
2022/09/21 03:41:54;;;;;;;2.55;2.00;;;;;;;5.70;100.00;102580.97;5039122;28;20483;-68
2022/09/21 03:44:20;;;;;;;4.97;1.63;;;;;;;5.48;100.00;102582.19;5023318;28;20043;-69
2022/09/21 03:46:46;;;;;;;3.17;2.33;;;;;;;5.63;100.00;102589.91;5061665;28;20044;-68
2022/09/21 03:49:12;;;;;;;2.42;2.22;;;;;;;5.52;100.00;102583.88;5015892;28;20056;-69
2022/09/21 03:51:38;;;;;;;2.25;1.88;;;;;;;5.44;100.00;102591.94;5044443;28;20152;-69
2022/09/21 03:54:04;;;;;;;2.58;2.10;;;;;;;5.45;100.00;102593.69;5035588;28;20793;-71
2022/09/21 03:56:29;;;;;;;6.47;2.65;;;;;;;5.55;100.00;102586.50;5044730;28;20036;-69
2022/09/21 03:58:55;;;;;;;2.67;2.20;;;;;;;5.44;100.00;102590.16;5059396;28;20036;-68
2022/09/21 04:01:21;;;;;;;2.38;1.83;;;;;;;5.37;100.00;102591.16;5060990;28;20473;-68
2022/09/21 04:03:47;;;;;;;2.63;2.10;;;;;;;5.43;100.00;102588.44;5043680;28;20101;-68
2022/09/21 04:06:13;;;;;;;1.90;1.77;;;;;;;5.43;100.00;102595.50;5061136;28;20046;-68
2022/09/21 04:08:39;;;;;;;3.80;1.90;;;;;;;5.41;100.00;102597.25;5009905;28;20152;-70
2022/09/21 04:11:12;;;;;;;6.53;2.28;;;;;;;5.39;100.00;102592.00;5024601;28;20040;-68
2022/09/21 04:13:38;;;;;;;13.65;3.35;;;;;;;5.40;100.00;102592.88;5062415;28;20028;-69
2022/09/21 04:16:04;;;;;;;11.90;3.83;;;;;;;5.43;100.00;102587.56;5043062;28;20555;-68
2022/09/21 04:18:31;;;;;;;3.97;2.60;;;;;;;5.47;100.00;102583.94;5059702;28;20040;-69
2022/09/21 04:20:57;;;;;;;3.85;2.97;;;;;;;5.49;100.00;102583.94;5057256;28;20060;-69
2022/09/21 04:23:22;;;;;;;6.13;3.72;;;;;;;5.47;100.00;102591.88;5040604;28;20538;-68
2022/09/21 04:25:50;;;;;;;5.90;4.18;;;;;;;5.49;100.00;102591.88;5044507;28;20040;-70
2022/09/21 04:28:16;;;;;;;4.97;3.05;;;;;;;5.47;100.00;102589.22;5042887;28;20036;-68
2022/09/21 04:30:42;;;;;;;6.00;4.00;;;;;;;5.48;100.00;102590.13;5043022;28;20059;-68
2022/09/21 04:33:07;;;;;;;10.43;3.88;;;;;;;5.48;100.00;102595.44;5042408;28;20163;-69
2022/09/21 04:35:33;;;;;;;8.10;3.63;;;;;;;5.40;100.00;102593.75;5042678;28;20094;-68
2022/09/21 04:37:58;;;;;;;6.95;2.80;;;;;;;5.22;100.00;102595.75;5040513;28;20078;-68
2022/09/21 04:40:24;;;;;;;3.65;2.05;;;;;;;5.03;100.00;102590.72;5036812;28;20501;-68
2022/09/21 04:42:53;;;;;;;4.03;2.63;;;;;;;4.99;100.00;102593.41;5040468;28;20060;-69
2022/09/21 04:45:20;;;;;;;23.45;3.65;;;;;;;4.89;100.00;102600.56;5023163;28;20049;-68
2022/09/21 04:47:46;;;;;;;13.15;4.32;;;;;;;4.88;100.00;102597.06;5040693;28;20086;-70
2022/09/21 04:50:12;;;;;;;6.00;3.17;;;;;;;4.98;100.00;102603.13;5058146;28;20052;-69
2022/09/21 04:52:38;;;;;;;5.30;3.20;;;;;;;4.96;100.00;102596.94;5032405;28;20441;-70
2022/09/21 04:55:04;;;;;;;8.27;3.28;;;;;;;5.03;100.00;102606.56;5060796;28;20029;-69
2022/09/21 04:57:29;;;;;;;5.70;3.10;;;;;;;5.01;100.00;102604.84;5025925;28;20032;-68
2022/09/21 04:59:55;;;;;;;4.63;3.10;;;;;;;5.12;100.00;102602.94;5042873;28;20037;-69
2022/09/21 05:02:20;;;;;;;6.93;4.47;;;;;;;5.19;100.00;102615.19;5054755;28;20055;-68
2022/09/21 05:04:46;;;;;;;8.25;4.25;;;;;;;5.23;100.00;102608.09;5039752;28;20036;-79
2022/09/21 05:07:11;;;;;;;5.72;3.88;;;;;;;5.22;100.00;102615.16;5060584;28;20519;-69
2022/09/21 05:12:21;;;;;;;8.55;4.72;;;;;;;5.09;100.00;102617.06;5059699;28;20040;-69
2022/09/21 05:14:47;;;;;;;6.07;4.15;;;;;;;5.08;100.00;102619.75;5059477;28;20507;-68
2022/09/21 05:17:12;;;;;;;8.13;3.35;;;;;;;5.02;100.00;102627.72;5038882;28;20040;-67
2022/09/21 05:19:41;;;;;;;5.85;3.67;;;;;;;5.02;100.00;102622.44;5040657;28;20044;-69
2022/09/21 05:22:07;;;;;;;6.57;3.88;;;;;;;5.07;100.00;102620.63;5058964;28;20052;-69
2022/09/21 05:24:33;;;;;;;5.97;3.50;;;;;;;5.11;100.00;102633.78;5041606;28;20039;-69
2022/09/21 05:26:59;;;;;;;5.70;3.28;;;;;;;5.09;100.00;102626.78;5039188;28;20032;-69
2022/09/21 05:29:25;;;;;;;7.88;4.75;;;;;;;5.05;100.00;102622.41;5039631;28;20032;-69
2022/09/21 05:31:56;;;;;;;5.90;3.47;;;;;;;5.05;100.00;102631.22;5034945;28;20044;-68
2022/09/21 05:34:26;;;;;;;4.93;3.17;;;;;;;5.03;100.00;102635.66;5055232;28;20141;-69
2022/09/21 05:37:08;;;;;;;6.00;3.33;;;;;;;5.10;100.00;102639.97;5055578;28;20494;-70
2022/09/21 05:39:34;;;;;;;6.50;4.15;;;;;;;5.21;100.00;102634.56;5034395;28;20163;-68
2022/09/21 05:42:00;;;;;;;8.23;5.00;;;;;;;5.32;100.00;102635.31;5055716;28;20112;-68
2022/09/21 05:44:29;;;;;;;9.18;5.00;;;;;;;5.34;100.00;102637.94;5035517;28;20092;-68
2022/09/21 05:47:22;;;;;;;13.18;5.57;;;;;;;5.43;100.00;102643.09;5033690;28;20052;-69
2022/09/21 05:50:00;;;;;;;11.27;5.43;;;;;;;5.34;100.00;102648.50;5051703;28;20046;-69
2022/09/21 05:52:52;;;;;;;8.13;4.82;;;;;;;5.36;100.00;102646.72;5026038;28;20036;-69
2022/09/21 05:55:24;;;;;;;10.68;4.85;;;;;;;5.50;100.00;102652.72;5041716;28;20052;-70
2022/09/21 05:58:09;;;;;;;5.70;3.60;;;;;;;5.36;100.00;102655.53;5059428;28;20037;-70
2022/09/21 06:01:19;;;;;;;4.30;3.28;;;;;;;5.39;100.00;102654.63;5056102;28;20358;-68
2022/09/21 06:03:47;;;;;;;7.45;4.28;;;;;;;5.61;100.00;102663.16;5055989;28;20048;-69
2022/09/21 06:06:13;;;;;;;12.95;4.68;;;;;;;5.75;100.00;102657.66;5023166;28;20055;-70
2022/09/21 06:08:39;;;;;;;6.68;4.78;;;;;;;5.78;100.00;102662.94;5060067;28;20037;-70
2022/09/21 06:11:04;;;;;;;6.20;4.70;;;;;;;5.91;100.00;102675.97;5060716;28;20528;-69
2022/09/21 06:13:30;;;;;;;8.23;4.85;;;;;;;5.88;100.00;102669.84;5018209;28;20524;-69
2022/09/21 06:15:57;;;;;;;15.15;4.60;;;;;;;6.01;100.00;102665.25;5054206;28;20032;-68
2022/09/21 06:18:22;;;;;;;11.80;4.60;;;;;;;6.05;100.00;102669.63;5060663;28;20119;-69
2022/09/21 06:20:48;;;;;;;10.55;4.47;;;;;;;6.15;100.00;102672.09;5060719;28;20913;-68
2022/09/21 06:23:14;;;;;;;30.35;7.35;;;;;;;6.07;100.00;102675.75;5058821;28;20955;-68
2022/09/21 06:25:39;;;;;;;25.05;7.18;;;;;;;6.08;100.00;102675.75;5056179;28;20054;-70
2022/09/21 06:28:08;;;;;;;27.40;9.43;;;;;;;6.29;100.00;102673.66;5061308;28;20037;-69
2022/09/21 06:30:34;;;;;;;23.05;8.40;;;;;;;6.48;100.00;102675.13;5044329;28;20043;-69
2022/09/21 06:33:01;;;;;;;34.08;11.00;;;;;;;6.69;100.00;102679.16;5046630;28;20126;-69
2022/09/21 06:35:28;;;;;;;22.02;9.30;;;;;;;6.83;100.00;102684.19;5029245;28;20504;-70
2022/09/21 06:38:00;;;;;;;19.95;9.25;;;;;;;7.15;100.00;102671.22;5065879;28;20044;-69
2022/09/21 06:40:27;;;;;;;18.15;8.95;;;;;;;7.59;100.00;102676.53;5055560;28;20745;-70
2022/09/21 06:42:57;;;;;;;19.25;8.65;;;;;;;8.24;100.00;102669.72;5045024;28;20301;-70
2022/09/21 06:45:27;;;;;;;14.93;6.97;;;;;;;8.59;100.00;102672.47;5024650;28;20036;-70
2022/09/21 06:47:53;;;;;;;9.90;6.28;;;;;;;8.93;100.00;102673.28;5046495;28;20654;-67
2022/09/21 06:50:19;;;;;;;11.85;5.80;;;;;;;9.14;100.00;102669.19;5044049;28;20051;-68
2022/09/21 06:52:45;;;;;;;12.95;6.22;;;;;;;9.62;100.00;102667.78;5052028;28;20045;-69
2022/09/21 06:55:11;;;;;;;12.85;7.10;;;;;;;10.67;100.00;102661.75;5028909;28;20036;-69
2022/09/21 06:57:38;;;;;;;14.68;7.95;;;;;;;10.61;100.00;102665.50;5061452;28;20575;-70
2022/09/21 07:00:06;;;;;;;13.60;7.50;;;;;;;10.94;100.00;102662.56;5060990;28;20032;-70
2022/09/21 07:02:31;;;;;;;16.02;8.70;;;;;;;11.08;100.00;102660.28;5037742;28;20387;-68
2022/09/21 07:04:58;;;;;;;26.25;9.35;;;;;;;11.67;100.00;102657.16;5058003;28;20036;-68
2022/09/21 07:07:24;;;;;;;15.82;8.27;;;;;;;11.87;100.00;102659.09;5062444;28;20119;-69
2022/09/21 07:09:50;;;;;;;20.77;8.23;;;;;;;12.19;100.00;102656.91;5060357;28;20033;-69
2022/09/21 07:12:17;;;;;;;15.50;7.70;;;;;;;12.92;100.00;102656.47;5059825;28;20064;-68
2022/09/21 07:14:44;;;;;;;9.25;6.43;;;;;;;12.73;100.00;102662.69;5062962;28;20146;-70
2022/09/21 07:17:12;;;;;;;16.25;6.93;;;;;;;12.92;100.00;102655.59;5057522;28;20133;-68
2022/09/21 07:19:38;;;;;;;14.73;6.10;;;;;;;13.36;98.30;102658.13;5061137;28;20040;-69
2022/09/21 07:22:04;;;;;;;14.23;6.07;;;;;;;13.98;91.26;102654.28;5042729;28;20041;-70
2022/09/21 07:24:29;;;;;;;12.30;5.60;;;;;;;14.11;90.25;102647.38;5060892;28;20074;-70
2022/09/21 07:26:58;;;;;;;11.15;6.20;;;;;;;14.19;92.51;102647.84;5058916;28;20051;-68
2022/09/21 07:29:24;;;;;;;8.15;5.68;;;;;;;14.46;88.99;102651.00;5056501;28;20036;-70
2022/09/21 07:31:50;;;;;;;10.98;5.18;;;;;;;14.31;91.36;102650.88;5041629;28;20070;-70
2022/09/21 07:34:15;;;;;;;7.63;5.07;;;;;;;14.67;86.88;102653.56;5060086;28;20036;-70
2022/09/21 07:36:41;;;;;;;10.93;5.78;;;;;;;14.22;89.29;102646.84;5059132;28;20041;-69
2022/09/21 07:39:08;;;;;;;10.13;5.40;;;;;;;14.50;87.72;102649.88;5054923;28;20537;-70
2022/09/21 07:41:34;;;;;;;13.60;4.53;;;;;;;14.54;87.94;102647.94;5058624;28;20068;-70
2022/09/21 07:43:59;;;;;;;11.20;5.68;;;;;;;14.71;87.63;102650.63;5059808;28;20526;-69
2022/09/21 07:46:25;;;;;;;12.15;5.78;;;;;;;14.81;88.32;102648.34;5059385;28;20036;-69
2022/09/21 07:48:55;;;;;;;9.63;5.57;;;;;;;14.89;87.77;102645.22;5058351;28;20048;-70
2022/09/21 07:51:23;;;;;;;12.13;5.60;;;;;;;15.12;88.04;102638.66;5059798;28;20147;-70
2022/09/21 07:53:57;;;;;;;8.40;4.25;;;;;;;15.12;86.47;102639.50;5057504;28;20859;-69
2022/09/21 07:56:23;;;;;;;12.95;6.13;;;;;;;14.48;93.86;102648.25;5040251;28;20576;-69
2022/09/21 07:59:07;;;;;;;12.15;5.10;;;;;;;14.94;90.81;102646.72;5059702;28;20040;-69
2022/09/21 08:01:34;;;;;;;10.52;5.03;;;;;;;14.83;93.63;102646.44;5040253;28;20088;-69
2022/09/21 08:04:01;;;;;;;9.75;5.20;;;;;;;14.83;89.34;102643.75;5052971;28;20043;-68
2022/09/21 08:06:29;;;;;;;12.88;4.53;;;;;;;14.95;91.53;102645.75;5026176;28;20078;-70
2022/09/21 08:08:55;;;;;;;9.63;4.85;;;;;;;14.71;94.75;102647.09;5059881;28;20062;-69
2022/09/21 08:11:21;;;;;;;11.00;6.10;;;;;;;14.90;94.30;102639.78;5060050;28;20049;-70
2022/09/21 08:13:48;;;;;;;12.50;5.00;;;;;;;14.85;94.91;102640.97;5060090;28;20572;-70
2022/09/21 08:16:13;;;;;;;10.75;5.13;;;;;;;14.55;94.61;102641.59;5059818;28;20036;-70
2022/09/21 08:18:40;;;;;;;11.70;4.82;;;;;;;14.10;98.77;102636.69;5057603;28;20492;-69
2022/09/21 08:21:07;;;;;;;12.43;3.78;;;;;;;13.95;99.41;102644.56;5055371;28;20045;-69
2022/09/21 08:23:33;;;;;;;12.75;5.43;;;;;;;13.83;100.00;102645.16;5057347;28;20119;-70
2022/09/21 08:26:05;;;;;;;9.60;4.60;;;;;;;14.09;100.00;102643.03;5059941;28;20035;-70
2022/09/21 08:28:31;;;;;;;14.05;5.30;;;;;;;14.16;100.00;102645.34;5059848;28;20051;-70
2022/09/21 08:31:04;;;;;;;9.63;4.60;;;;;;;13.92;100.00;102657.28;5052580;28;20029;-70
2022/09/21 08:33:30;;;;;;;12.40;4.57;;;;;;;13.96;100.00;102656.19;5058920;28;20032;-68
2022/09/21 08:35:58;;;;;;;14.15;4.20;;;;;;;14.17;100.00;102646.22;5059533;28;20422;-69
2022/09/21 08:38:24;;;;;;;11.23;3.58;;;;;;;13.91;100.00;102655.53;5036958;28;20438;-68
2022/09/21 08:40:51;;;;;;;8.27;3.70;;;;;;;13.97;100.00;102647.19;5056457;28;20389;-69
2022/09/21 08:43:31;;;;;;;9.55;3.33;;;;;;;14.18;96.85;102651.50;5056852;28;20032;-70
2022/09/21 08:45:58;;;;;;;12.38;2.80;;;;;;;14.23;95.47;102646.75;5059683;28;20040;-70
2022/09/21 08:48:29;;;;;;;8.48;2.95;;;;;;;14.76;94.89;102653.94;5051292;28;20037;-70
2022/09/21 08:50:58;;;;;;;8.25;2.03;;;;;;;14.47;88.04;102650.06;5052062;28;20569;-69
2022/09/21 08:53:34;;;;;;;6.57;2.08;;;;;;;14.52;89.18;102641.78;5037061;28;20032;-69
2022/09/21 08:56:01;;;;;;;6.03;2.92;;;;;;;14.23;89.28;102652.13;5024096;28;20025;-69
2022/09/21 08:58:30;;;;;;;7.63;1.70;;;;;;;14.54;86.68;102652.44;5057897;28;20044;-70
2022/09/21 09:01:04;;;;;;;9.45;2.67;;;;;;;14.48;88.59;102651.78;5056122;28;20063;-68
2022/09/21 09:04:15;;;;;;;6.38;2.67;;;;;;;14.49;89.51;102652.66;5056843;28;20052;-69
2022/09/21 09:06:44;;;;;;;14.40;3.50;;;;;;;14.94;89.27;102659.28;5039615;28;20595;-69
2022/09/21 09:09:38;;;;;;;9.40;3.30;;;;;;;14.37;92.02;102661.31;5057803;28;20117;-69
2022/09/21 09:12:25;;;;;;;8.07;3.03;;;;;;;14.69;89.06;102660.56;5039729;28;20044;-70
2022/09/21 09:14:57;;;;;;;6.03;2.95;;;;;;;14.92;88.14;102662.06;5024184;28;20215;-68
2022/09/21 09:17:43;;;;;;;10.73;3.67;;;;;;;14.81;87.22;102666.25;5055184;28;20032;-68
2022/09/21 09:20:20;;;;;;;9.35;3.13;;;;;;;14.96;85.81;102668.13;5055864;28;20041;-69
2022/09/21 09:23:06;;;;;;;7.65;1.73;;;;;;;14.69;83.27;102671.31;5037900;28;20037;-69
2022/09/21 09:25:37;;;;;;;4.40;1.70;;;;;;;14.90;82.75;102672.00;5024230;28;20052;-69
2022/09/21 09:28:35;;;;;;;5.45;1.95;;;;;;;14.82;85.36;102674.25;5057262;28;20564;-69
2022/09/21 09:31:11;;;;;;;7.65;3.05;;;;;;;15.07;85.13;102671.13;5027145;28;20100;-68
2022/09/21 09:34:15;;;;;;;9.55;2.42;;;;;;;15.38;82.36;102672.19;5059642;28;20037;-68
2022/09/21 09:36:47;;;;;;;8.48;2.15;;;;;;;15.21;80.66;102668.59;5057729;28;20056;-68
2022/09/21 09:39:14;;;;;;;9.70;2.78;;;;;;;15.02;82.47;102671.38;5041572;28;20412;-69
2022/09/21 09:42:13;;;;;;;6.38;1.73;;;;;;;15.25;84.15;102671.97;5016873;28;20299;-71
2022/09/21 09:45:04;;;;;;;10.43;2.55;;;;;;;15.11;80.91;102661.06;5039471;28;20040;-69
2022/09/21 09:47:36;;;;;;;7.95;2.33;;;;;;;15.46;80.15;102662.75;5034653;28;20475;-69
2022/09/21 09:50:24;;;;;;;12.00;2.90;;;;;;;15.77;80.53;102664.63;5035754;28;20599;-68
2022/09/21 09:52:54;;;;;;;10.75;2.08;;;;;;;15.88;77.70;102661.34;5040461;28;20036;-70
2022/09/21 09:55:24;;;;;;;8.32;2.22;;;;;;;15.91;76.47;102658.44;5041315;28;20614;-69
2022/09/21 09:57:53;;;;;;;6.30;2.15;;;;;;;16.29;77.94;102658.09;5041117;28;20037;-70
2022/09/21 10:00:20;;;;;;;7.53;2.28;;;;;;;16.21;76.23;102658.50;5027587;28;20045;-69
2022/09/21 10:02:51;;;;;;;5.63;1.80;;;;;;;16.57;78.45;102657.34;5058518;28;20060;-69
2022/09/21 10:05:30;;;;;;;7.90;1.87;;;;;;;16.64;72.88;102656.00;5011825;28;20901;-70
2022/09/21 10:07:56;;;;;;;5.93;1.77;;;;;;;16.51;74.28;102654.97;5058789;28;21028;-70
2022/09/21 10:10:28;;;;;;;9.98;1.58;;;;;;;16.38;73.04;102652.16;5058658;28;20565;-70
2022/09/21 10:13:09;;;;;;;8.10;1.33;;;;;;;15.99;80.80;102653.50;5059102;28;20043;-71
2022/09/21 10:15:49;;;;;;;5.22;1.70;;;;;;;15.68;76.54;102656.22;5026494;28;20466;-70
2022/09/21 10:18:22;;;;;;;9.98;1.83;;;;;;;15.63;76.08;102652.88;5043552;28;20578;-70
2022/09/21 10:20:59;;;;;;;7.38;1.60;;;;;;;16.37;77.40;102647.75;5044856;28;20146;-70
2022/09/21 10:23:28;;;;;;;6.53;1.60;;;;;;;16.81;72.84;102645.09;5044552;28;20060;-68
2022/09/21 10:26:09;;;;;;;5.97;1.45;;;;;;;16.80;68.72;102645.19;5042463;28;20139;-70
2022/09/21 10:28:35;;;;;;;2.42;1.15;;;;;;;16.20;69.93;102647.84;5038865;28;20468;-70
2022/09/21 10:31:15;;;;;;;8.30;1.60;;;;;;;16.76;69.28;102643.63;5044206;28;20029;-69
2022/09/21 10:34:13;;;;;;;10.50;2.05;;;;;;;16.70;67.82;102639.47;5023257;28;20040;-69
2022/09/21 10:36:40;;;;;;;2.95;1.20;;;;;;;16.55;73.81;102643.94;5041153;28;20136;-69
2022/09/21 10:39:29;;;;;;;3.47;1.38;;;;;;;17.11;64.94;102643.31;5063009;28;20435;-69
2022/09/21 10:41:57;;;;;;;5.15;1.20;;;;;;;16.79;66.66;102630.84;5044519;28;20051;-71
2022/09/21 10:44:32;;;;;;;3.35;1.10;;;;;;;16.93;68.83;102632.72;5040233;28;20550;-69
2022/09/21 10:47:13;;;;;;;1.95;1.10;;;;;;;17.68;63.75;102622.56;5055482;28;20457;-71
2022/09/21 10:49:45;;;;;;;7.20;1.60;;;;;;;17.75;64.65;102626.63;5062077;28;20552;-69
2022/09/21 10:52:11;;;;;;;;;;;;;;;17.85;64.65;102626.88;5044439;28;20036;-70
2022/09/21 10:54:42;;;;;;;8.38;1.50;;;;;;;18.07;64.80;102619.13;5041204;28;19917;-74
2022/09/21 10:57:15;;;;;;;4.35;1.35;;;;;;;18.14;65.17;102619.56;5044946;28;20036;-72
2022/09/21 10:59:47;;;;;;;7.97;1.65;;;;;;;17.89;64.69;102617.63;5062397;28;20111;-75
2022/09/21 11:02:35;;;;;;;7.95;1.75;;;;;;;17.40;64.70;102622.59;5040956;28;20739;-73
2022/09/21 11:05:31;;;;;;;8.52;2.03;;;;;;;17.24;65.92;102630.78;5038663;28;20040;-68
2022/09/21 11:08:22;;;;;;;4.35;2.15;;;;;;;16.63;69.07;102627.34;5024030;28;20090;-69
2022/09/21 11:11:27;;;;;;;4.85;1.63;;;;;;;16.33;68.42;102631.84;5041121;28;20405;-70
2022/09/21 11:13:56;;;;;;;4.47;1.30;;;;;;;16.29;70.72;102628.47;5033853;28;20044;-70
2022/09/21 11:16:30;;;;;;;3.88;1.25;;;;;;;16.54;68.84;102631.44;5040696;28;20041;-71
2022/09/21 11:19:46;;;;;;;6.90;1.70;;;;;;;16.37;64.53;102633.41;5041021;28;20114;-68
2022/09/21 11:22:43;;;;;;;2.80;0.90;;;;;;;16.31;64.19;102629.22;4997901;28;20272;-70
2022/09/21 11:25:45;;;;;;;4.28;1.20;;;;;;;17.19;61.38;102624.84;5007164;28;20053;-70
2022/09/21 11:28:34;;;;;;;1.50;0.57;;;;;;;17.84;58.20;102620.63;5021524;28;20083;-73
2022/09/21 11:31:15;;;;;;;4.60;1.00;;;;;;;17.50;59.97;102621.91;5020399;28;20111;-75
2022/09/21 11:34:03;;;;;;;4.87;0.97;;;;;;;17.14;58.44;102629.66;5022347;28;20059;-72
2022/09/21 11:36:50;;;;;;;1.52;0.63;;;;;;;17.01;59.59;102626.84;5022514;28;20053;-73
2022/09/21 11:39:26;;;;;;;8.73;0.82;;;;;;;16.87;61.09;102622.31;5004540;28;20033;-74
2022/09/21 11:42:00;;;;;;;3.65;0.90;;;;;;;16.41;59.61;102616.97;5007821;28;20072;-71
2022/09/21 11:44:28;;;;;;;3.75;0.80;;;;;;;16.68;60.28;102625.22;5008589;28;20127;-72
2022/09/21 11:46:59;;;;;;;5.25;1.10;;;;;;;16.73;65.78;102620.47;5025701;28;20765;-73